sensor_id;sensor_type;location;lat;lon;timestamp;P1;durP1;ratioP1;P2;durP2;ratioP2
79124;SDS011;68527;39.470;-0.376;2023-04-15T00:00:08;2.20;;;1.40;;
79124;SDS011;68527;39.470;-0.376;2023-04-15T00:02:34;2.40;;;1.10;;
79124;SDS011;68527;39.470;-0.376;2023-04-15T00:05:01;2.80;;;1.10;;
79124;SDS011;68527;39.470;-0.376;2023-04-15T00:07:27;2.80;;;1.30;;
79124;SDS011;68527;39.470;-0.376;2023-04-15T00:09:53;2.70;;;1.20;;
79124;SDS011;68527;39.470;-0.376;2023-04-15T00:12:22;3.00;;;0.90;;
79124;SDS011;68527;39.470;-0.376;2023-04-15T00:14:48;3.50;;;1.30;;
79124;SDS011;68527;39.470;-0.376;2023-04-15T00:17:14;2.30;;;1.10;;
79124;SDS011;68527;39.470;-0.376;2023-04-15T00:22:05;3.10;;;1.10;;
79124;SDS011;68527;39.470;-0.376;2023-04-15T00:24:31;2.80;;;1.10;;
79124;SDS011;68527;39.470;-0.376;2023-04-15T00:26:56;2.50;;;0.80;;
79124;SDS011;68527;39.470;-0.376;2023-04-15T00:29:22;5.40;;;1.20;;
79124;SDS011;68527;39.470;-0.376;2023-04-15T00:31:48;2.80;;;1.40;;
79124;SDS011;68527;39.470;-0.376;2023-04-15T00:36:39;3.70;;;1.40;;
79124;SDS011;68527;39.470;-0.376;2023-04-15T00:39:05;3.10;;;1.10;;
79124;SDS011;68527;39.470;-0.376;2023-04-15T00:43:58;3.10;;;1.10;;
79124;SDS011;68527;39.470;-0.376;2023-04-15T00:46:25;2.50;;;1.30;;
79124;SDS011;68527;39.470;-0.376;2023-04-15T00:48:51;1.80;;;1.10;;
79124;SDS011;68527;39.470;-0.376;2023-04-15T00:51:18;1.90;;;0.90;;
79124;SDS011;68527;39.470;-0.376;2023-04-15T00:53:44;3.00;;;1.10;;
79124;SDS011;68527;39.470;-0.376;2023-04-15T00:56:10;3.00;;;1.20;;
79124;SDS011;68527;39.470;-0.376;2023-04-15T00:58:35;3.30;;;1.10;;
79124;SDS011;68527;39.470;-0.376;2023-04-15T01:01:01;4.10;;;1.10;;
79124;SDS011;68527;39.470;-0.376;2023-04-15T01:03:28;2.30;;;1.20;;
79124;SDS011;68527;39.470;-0.376;2023-04-15T01:05:54;3.30;;;1.30;;
79124;SDS011;68527;39.470;-0.376;2023-04-15T01:08:25;2.50;;;1.10;;
79124;SDS011;68527;39.470;-0.376;2023-04-15T01:10:52;2.00;;;1.00;;
79124;SDS011;68527;39.470;-0.376;2023-04-15T01:13:22;1.50;;;0.90;;
79124;SDS011;68527;39.470;-0.376;2023-04-15T01:15:48;3.00;;;1.20;;
79124;SDS011;68527;39.470;-0.376;2023-04-15T01:18:14;2.80;;;1.10;;
79124;SDS011;68527;39.470;-0.376;2023-04-15T01:23:05;3.00;;;1.10;;
79124;SDS011;68527;39.470;-0.376;2023-04-15T01:25:32;2.50;;;1.00;;
79124;SDS011;68527;39.470;-0.376;2023-04-15T01:27:58;3.70;;;0.90;;
79124;SDS011;68527;39.470;-0.376;2023-04-15T01:30:24;2.00;;;1.00;;
79124;SDS011;68527;39.470;-0.376;2023-04-15T01:32:51;2.60;;;1.00;;
79124;SDS011;68527;39.470;-0.376;2023-04-15T01:35:17;4.40;;;1.30;;
79124;SDS011;68527;39.470;-0.376;2023-04-15T01:37:42;2.80;;;0.90;;
79124;SDS011;68527;39.470;-0.376;2023-04-15T01:40:09;4.30;;;1.50;;
79124;SDS011;68527;39.470;-0.376;2023-04-15T01:42:35;4.40;;;1.20;;
79124;SDS011;68527;39.470;-0.376;2023-04-15T01:45:01;2.90;;;1.00;;
79124;SDS011;68527;39.470;-0.376;2023-04-15T01:47:27;4.00;;;1.30;;
79124;SDS011;68527;39.470;-0.376;2023-04-15T01:49:53;1.80;;;1.00;;
79124;SDS011;68527;39.470;-0.376;2023-04-15T01:52:18;2.20;;;1.10;;
79124;SDS011;68527;39.470;-0.376;2023-04-15T01:54:44;2.50;;;1.10;;
79124;SDS011;68527;39.470;-0.376;2023-04-15T01:57:10;3.70;;;1.00;;
79124;SDS011;68527;39.470;-0.376;2023-04-15T01:59:36;2.40;;;0.80;;
79124;SDS011;68527;39.470;-0.376;2023-04-15T02:02:02;1.90;;;1.10;;
79124;SDS011;68527;39.470;-0.376;2023-04-15T02:04:28;2.00;;;0.90;;
79124;SDS011;68527;39.470;-0.376;2023-04-15T02:06:54;5.20;;;1.20;;
79124;SDS011;68527;39.470;-0.376;2023-04-15T02:09:19;4.70;;;1.20;;
79124;SDS011;68527;39.470;-0.376;2023-04-15T02:14:10;1.80;;;1.10;;
79124;SDS011;68527;39.470;-0.376;2023-04-15T02:16:36;1.70;;;0.90;;
79124;SDS011;68527;39.470;-0.376;2023-04-15T02:21:28;2.10;;;1.10;;
79124;SDS011;68527;39.470;-0.376;2023-04-15T02:23:54;2.90;;;1.30;;
79124;SDS011;68527;39.470;-0.376;2023-04-15T02:26:20;2.90;;;1.10;;
79124;SDS011;68527;39.470;-0.376;2023-04-15T02:28:46;4.00;;;1.10;;
79124;SDS011;68527;39.470;-0.376;2023-04-15T02:31:15;2.80;;;1.20;;
79124;SDS011;68527;39.470;-0.376;2023-04-15T02:33:41;2.80;;;1.10;;
79124;SDS011;68527;39.470;-0.376;2023-04-15T02:38:33;1.70;;;0.90;;
79124;SDS011;68527;39.470;-0.376;2023-04-15T02:40:59;2.80;;;0.80;;
79124;SDS011;68527;39.470;-0.376;2023-04-15T02:43:24;1.70;;;0.90;;
79124;SDS011;68527;39.470;-0.376;2023-04-15T02:48:16;2.80;;;0.80;;
79124;SDS011;68527;39.470;-0.376;2023-04-15T02:50:44;2.60;;;1.00;;
79124;SDS011;68527;39.470;-0.376;2023-04-15T02:53:10;2.50;;;1.00;;
79124;SDS011;68527;39.470;-0.376;2023-04-15T02:55:37;2.10;;;1.10;;
79124;SDS011;68527;39.470;-0.376;2023-04-15T02:58:03;2.10;;;1.00;;
79124;SDS011;68527;39.470;-0.376;2023-04-15T03:00:28;2.40;;;0.90;;
79124;SDS011;68527;39.470;-0.376;2023-04-15T03:03:12;2.10;;;1.00;;
79124;SDS011;68527;39.470;-0.376;2023-04-15T03:05:39;1.50;;;0.80;;
79124;SDS011;68527;39.470;-0.376;2023-04-15T03:08:05;2.00;;;0.90;;
79124;SDS011;68527;39.470;-0.376;2023-04-15T03:10:30;4.30;;;1.00;;
79124;SDS011;68527;39.470;-0.376;2023-04-15T03:15:21;2.30;;;1.10;;
79124;SDS011;68527;39.470;-0.376;2023-04-15T03:17:47;1.60;;;0.80;;
79124;SDS011;68527;39.470;-0.376;2023-04-15T03:20:13;1.30;;;1.00;;
79124;SDS011;68527;39.470;-0.376;2023-04-15T03:22:39;2.50;;;0.80;;
79124;SDS011;68527;39.470;-0.376;2023-04-15T03:25:05;1.20;;;0.70;;
79124;SDS011;68527;39.470;-0.376;2023-04-15T03:27:31;2.50;;;0.80;;
79124;SDS011;68527;39.470;-0.376;2023-04-15T03:32:22;2.90;;;1.10;;
79124;SDS011;68527;39.470;-0.376;2023-04-15T03:34:48;2.00;;;0.90;;
79124;SDS011;68527;39.470;-0.376;2023-04-15T03:39:39;2.40;;;0.80;;
79124;SDS011;68527;39.470;-0.376;2023-04-15T03:42:05;4.10;;;1.00;;
79124;SDS011;68527;39.470;-0.376;2023-04-15T03:44:31;1.50;;;0.80;;
79124;SDS011;68527;39.470;-0.376;2023-04-15T03:46:56;1.80;;;0.70;;
79124;SDS011;68527;39.470;-0.376;2023-04-15T03:51:48;1.80;;;0.80;;
79124;SDS011;68527;39.470;-0.376;2023-04-15T03:54:14;1.80;;;1.10;;
79124;SDS011;68527;39.470;-0.376;2023-04-15T03:59:05;4.40;;;0.90;;
79124;SDS011;68527;39.470;-0.376;2023-04-15T04:01:31;2.80;;;1.20;;
79124;SDS011;68527;39.470;-0.376;2023-04-15T04:03:57;2.40;;;0.70;;
79124;SDS011;68527;39.470;-0.376;2023-04-15T04:06:22;3.30;;;0.90;;
79124;SDS011;68527;39.470;-0.376;2023-04-15T04:11:13;1.70;;;0.80;;
79124;SDS011;68527;39.470;-0.376;2023-04-15T04:16:05;2.50;;;0.80;;
79124;SDS011;68527;39.470;-0.376;2023-04-15T04:18:31;1.90;;;0.70;;
79124;SDS011;68527;39.470;-0.376;2023-04-15T04:20:57;1.50;;;0.70;;
79124;SDS011;68527;39.470;-0.376;2023-04-15T04:23:22;2.40;;;1.00;;
79124;SDS011;68527;39.470;-0.376;2023-04-15T04:25:48;1.80;;;0.80;;
79124;SDS011;68527;39.470;-0.376;2023-04-15T04:30:39;1.90;;;0.70;;
79124;SDS011;68527;39.470;-0.376;2023-04-15T04:33:05;1.40;;;0.70;;
79124;SDS011;68527;39.470;-0.376;2023-04-15T04:35:31;2.90;;;0.90;;
79124;SDS011;68527;39.470;-0.376;2023-04-15T04:37:59;3.90;;;1.30;;
79124;SDS011;68527;39.470;-0.376;2023-04-15T04:40:25;1.70;;;0.80;;
79124;SDS011;68527;39.470;-0.376;2023-04-15T04:42:51;1.70;;;1.00;;
79124;SDS011;68527;39.470;-0.376;2023-04-15T04:45:17;1.50;;;0.90;;
79124;SDS011;68527;39.470;-0.376;2023-04-15T04:47:43;1.50;;;0.80;;
79124;SDS011;68527;39.470;-0.376;2023-04-15T04:50:09;1.50;;;0.60;;
79124;SDS011;68527;39.470;-0.376;2023-04-15T04:52:35;2.10;;;0.70;;
79124;SDS011;68527;39.470;-0.376;2023-04-15T04:55:01;1.80;;;0.70;;
79124;SDS011;68527;39.470;-0.376;2023-04-15T04:59:52;1.60;;;0.80;;
79124;SDS011;68527;39.470;-0.376;2023-04-15T05:02:17;2.20;;;1.00;;
79124;SDS011;68527;39.470;-0.376;2023-04-15T05:04:43;1.50;;;0.80;;
79124;SDS011;68527;39.470;-0.376;2023-04-15T05:07:08;4.00;;;1.00;;
79124;SDS011;68527;39.470;-0.376;2023-04-15T05:09:34;1.80;;;0.70;;
79124;SDS011;68527;39.470;-0.376;2023-04-15T05:12:01;2.70;;;0.90;;
79124;SDS011;68527;39.470;-0.376;2023-04-15T05:14:28;2.50;;;0.90;;
79124;SDS011;68527;39.470;-0.376;2023-04-15T05:16:53;1.90;;;0.80;;
79124;SDS011;68527;39.470;-0.376;2023-04-15T05:19:19;3.20;;;0.90;;
79124;SDS011;68527;39.470;-0.376;2023-04-15T05:21:44;1.00;;;0.70;;
79124;SDS011;68527;39.470;-0.376;2023-04-15T05:26:36;1.90;;;0.70;;
79124;SDS011;68527;39.470;-0.376;2023-04-15T05:31:27;1.20;;;0.60;;
79124;SDS011;68527;39.470;-0.376;2023-04-15T05:33:52;2.70;;;0.80;;
79124;SDS011;68527;39.470;-0.376;2023-04-15T05:36:18;1.60;;;0.80;;
79124;SDS011;68527;39.470;-0.376;2023-04-15T05:38:43;1.80;;;0.70;;
79124;SDS011;68527;39.470;-0.376;2023-04-15T05:43:34;2.90;;;0.90;;
79124;SDS011;68527;39.470;-0.376;2023-04-15T05:46:00;2.90;;;0.70;;
79124;SDS011;68527;39.470;-0.376;2023-04-15T05:48:26;1.40;;;0.70;;
79124;SDS011;68527;39.470;-0.376;2023-04-15T05:50:51;1.50;;;0.80;;
79124;SDS011;68527;39.470;-0.376;2023-04-15T05:55:42;2.10;;;0.80;;
79124;SDS011;68527;39.470;-0.376;2023-04-15T05:58:07;2.30;;;0.90;;
79124;SDS011;68527;39.470;-0.376;2023-04-15T06:00:33;1.30;;;0.80;;
79124;SDS011;68527;39.470;-0.376;2023-04-15T06:02:59;1.70;;;0.90;;
79124;SDS011;68527;39.470;-0.376;2023-04-15T06:05:25;2.00;;;0.90;;
79124;SDS011;68527;39.470;-0.376;2023-04-15T06:10:16;1.00;;;0.70;;
79124;SDS011;68527;39.470;-0.376;2023-04-15T06:12:42;1.70;;;0.60;;
79124;SDS011;68527;39.470;-0.376;2023-04-15T06:17:34;2.30;;;0.60;;
79124;SDS011;68527;39.470;-0.376;2023-04-15T06:20:00;1.00;;;0.70;;
79124;SDS011;68527;39.470;-0.376;2023-04-15T06:24:51;1.60;;;0.70;;
79124;SDS011;68527;39.470;-0.376;2023-04-15T06:27:17;1.30;;;0.70;;
79124;SDS011;68527;39.470;-0.376;2023-04-15T06:29:43;1.20;;;0.60;;
79124;SDS011;68527;39.470;-0.376;2023-04-15T06:32:09;1.10;;;0.70;;
79124;SDS011;68527;39.470;-0.376;2023-04-15T06:34:35;1.70;;;0.80;;
79124;SDS011;68527;39.470;-0.376;2023-04-15T06:39:26;1.60;;;0.80;;
79124;SDS011;68527;39.470;-0.376;2023-04-15T06:41:52;1.40;;;0.60;;
79124;SDS011;68527;39.470;-0.376;2023-04-15T06:46:43;2.60;;;1.20;;
79124;SDS011;68527;39.470;-0.376;2023-04-15T06:49:09;2.50;;;0.70;;
79124;SDS011;68527;39.470;-0.376;2023-04-15T06:51:35;1.50;;;0.60;;
79124;SDS011;68527;39.470;-0.376;2023-04-15T06:54:01;3.90;;;0.90;;
79124;SDS011;68527;39.470;-0.376;2023-04-15T06:56:30;1.30;;;0.70;;
79124;SDS011;68527;39.470;-0.376;2023-04-15T06:58:56;2.50;;;0.90;;
79124;SDS011;68527;39.470;-0.376;2023-04-15T07:01:22;1.90;;;0.90;;
79124;SDS011;68527;39.470;-0.376;2023-04-15T07:06:13;1.90;;;0.90;;
79124;SDS011;68527;39.470;-0.376;2023-04-15T07:08:38;4.00;;;0.90;;
79124;SDS011;68527;39.470;-0.376;2023-04-15T07:11:04;3.40;;;1.00;;
79124;SDS011;68527;39.470;-0.376;2023-04-15T07:13:30;2.60;;;0.80;;
79124;SDS011;68527;39.470;-0.376;2023-04-15T07:15:56;2.40;;;0.80;;
79124;SDS011;68527;39.470;-0.376;2023-04-15T07:18:22;1.50;;;0.90;;
79124;SDS011;68527;39.470;-0.376;2023-04-15T07:23:13;5.20;;;1.00;;
79124;SDS011;68527;39.470;-0.376;2023-04-15T07:25:38;2.90;;;1.10;;
79124;SDS011;68527;39.470;-0.376;2023-04-15T07:30:29;3.70;;;1.40;;
79124;SDS011;68527;39.470;-0.376;2023-04-15T07:35:21;3.50;;;1.10;;
79124;SDS011;68527;39.470;-0.376;2023-04-15T07:37:47;3.90;;;1.20;;
79124;SDS011;68527;39.470;-0.376;2023-04-15T07:40:12;4.70;;;1.50;;
79124;SDS011;68527;39.470;-0.376;2023-04-15T07:42:40;7.80;;;1.30;;
79124;SDS011;68527;39.470;-0.376;2023-04-15T07:45:06;4.60;;;1.70;;
79124;SDS011;68527;39.470;-0.376;2023-04-15T07:47:33;4.30;;;1.90;;
79124;SDS011;68527;39.470;-0.376;2023-04-15T07:49:58;2.20;;;1.40;;
79124;SDS011;68527;39.470;-0.376;2023-04-15T07:52:24;6.00;;;1.50;;
79124;SDS011;68527;39.470;-0.376;2023-04-15T07:54:50;7.10;;;1.40;;
79124;SDS011;68527;39.470;-0.376;2023-04-15T07:57:16;4.70;;;1.20;;
79124;SDS011;68527;39.470;-0.376;2023-04-15T07:59:41;3.80;;;1.50;;
79124;SDS011;68527;39.470;-0.376;2023-04-15T08:02:07;7.30;;;1.20;;
79124;SDS011;68527;39.470;-0.376;2023-04-15T08:04:33;5.70;;;1.30;;
79124;SDS011;68527;39.470;-0.376;2023-04-15T08:06:59;7.30;;;1.50;;
79124;SDS011;68527;39.470;-0.376;2023-04-15T08:09:25;7.20;;;1.80;;
79124;SDS011;68527;39.470;-0.376;2023-04-15T08:11:51;5.20;;;1.60;;
79124;SDS011;68527;39.470;-0.376;2023-04-15T08:16:42;5.00;;;1.40;;
79124;SDS011;68527;39.470;-0.376;2023-04-15T08:19:08;4.40;;;1.30;;
79124;SDS011;68527;39.470;-0.376;2023-04-15T08:21:33;7.20;;;1.80;;
79124;SDS011;68527;39.470;-0.376;2023-04-15T08:26:24;7.70;;;1.70;;
79124;SDS011;68527;39.470;-0.376;2023-04-15T08:28:50;16.80;;;2.70;;
79124;SDS011;68527;39.470;-0.376;2023-04-15T08:31:16;6.20;;;1.90;;
79124;SDS011;68527;39.470;-0.376;2023-04-15T08:33:42;8.70;;;1.70;;
79124;SDS011;68527;39.470;-0.376;2023-04-15T08:36:08;7.00;;;1.40;;
79124;SDS011;68527;39.470;-0.376;2023-04-15T08:38:33;7.20;;;2.00;;
79124;SDS011;68527;39.470;-0.376;2023-04-15T08:41:02;7.00;;;1.70;;
79124;SDS011;68527;39.470;-0.376;2023-04-15T08:43:34;9.20;;;1.60;;
79124;SDS011;68527;39.470;-0.376;2023-04-15T08:46:00;5.90;;;1.70;;
79124;SDS011;68527;39.470;-0.376;2023-04-15T08:48:30;5.90;;;1.60;;
79124;SDS011;68527;39.470;-0.376;2023-04-15T08:50:57;6.60;;;1.80;;
79124;SDS011;68527;39.470;-0.376;2023-04-15T08:53:23;7.90;;;1.60;;
79124;SDS011;68527;39.470;-0.376;2023-04-15T08:55:50;5.40;;;1.50;;
79124;SDS011;68527;39.470;-0.376;2023-04-15T08:58:16;6.70;;;1.50;;
79124;SDS011;68527;39.470;-0.376;2023-04-15T09:00:43;3.70;;;1.90;;
79124;SDS011;68527;39.470;-0.376;2023-04-15T09:03:10;6.80;;;1.70;;
79124;SDS011;68527;39.470;-0.376;2023-04-15T09:05:36;3.70;;;1.30;;
79124;SDS011;68527;39.470;-0.376;2023-04-15T09:08:02;5.80;;;1.40;;
79124;SDS011;68527;39.470;-0.376;2023-04-15T09:10:29;9.70;;;1.40;;
79124;SDS011;68527;39.470;-0.376;2023-04-15T09:12:55;5.20;;;1.90;;
79124;SDS011;68527;39.470;-0.376;2023-04-15T09:15:22;5.10;;;1.40;;
79124;SDS011;68527;39.470;-0.376;2023-04-15T09:17:49;5.40;;;1.20;;
79124;SDS011;68527;39.470;-0.376;2023-04-15T09:20:15;6.20;;;1.40;;
79124;SDS011;68527;39.470;-0.376;2023-04-15T09:22:44;4.60;;;1.30;;
79124;SDS011;68527;39.470;-0.376;2023-04-15T09:27:55;5.20;;;1.30;;
79124;SDS011;68527;39.470;-0.376;2023-04-15T09:30:26;5.90;;;1.20;;
79124;SDS011;68527;39.470;-0.376;2023-04-15T09:32:53;4.20;;;1.30;;
79124;SDS011;68527;39.470;-0.376;2023-04-15T09:35:23;3.50;;;1.30;;
79124;SDS011;68527;39.470;-0.376;2023-04-15T09:37:49;2.60;;;1.20;;
79124;SDS011;68527;39.470;-0.376;2023-04-15T09:40:31;5.20;;;1.30;;
79124;SDS011;68527;39.470;-0.376;2023-04-15T09:42:58;8.00;;;1.70;;
79124;SDS011;68527;39.470;-0.376;2023-04-15T09:45:23;3.20;;;1.20;;
79124;SDS011;68527;39.470;-0.376;2023-04-15T09:47:49;3.80;;;1.30;;
79124;SDS011;68527;39.470;-0.376;2023-04-15T09:50:16;3.10;;;1.20;;
79124;SDS011;68527;39.470;-0.376;2023-04-15T09:52:42;3.00;;;1.50;;
79124;SDS011;68527;39.470;-0.376;2023-04-15T09:55:08;5.60;;;1.50;;
79124;SDS011;68527;39.470;-0.376;2023-04-15T09:57:35;3.80;;;1.50;;
79124;SDS011;68527;39.470;-0.376;2023-04-15T10:00:06;3.40;;;1.00;;
79124;SDS011;68527;39.470;-0.376;2023-04-15T10:02:34;3.00;;;1.30;;
79124;SDS011;68527;39.470;-0.376;2023-04-15T10:05:03;4.30;;;1.10;;
79124;SDS011;68527;39.470;-0.376;2023-04-15T10:07:28;5.40;;;1.40;;
79124;SDS011;68527;39.470;-0.376;2023-04-15T10:09:55;2.80;;;1.20;;
79124;SDS011;68527;39.470;-0.376;2023-04-15T10:12:21;4.60;;;1.50;;
79124;SDS011;68527;39.470;-0.376;2023-04-15T10:14:47;4.40;;;1.40;;
79124;SDS011;68527;39.470;-0.376;2023-04-15T10:17:17;3.30;;;1.30;;
79124;SDS011;68527;39.470;-0.376;2023-04-15T10:19:46;2.40;;;1.10;;
79124;SDS011;68527;39.470;-0.376;2023-04-15T10:22:13;6.70;;;1.30;;
79124;SDS011;68527;39.470;-0.376;2023-04-15T10:24:39;5.50;;;1.70;;
79124;SDS011;68527;39.470;-0.376;2023-04-15T10:27:05;3.20;;;1.20;;
79124;SDS011;68527;39.470;-0.376;2023-04-15T10:29:31;5.10;;;1.40;;
79124;SDS011;68527;39.470;-0.376;2023-04-15T10:32:00;4.20;;;1.10;;
79124;SDS011;68527;39.470;-0.376;2023-04-15T10:34:26;3.50;;;1.10;;
79124;SDS011;68527;39.470;-0.376;2023-04-15T10:36:55;3.60;;;1.00;;
79124;SDS011;68527;39.470;-0.376;2023-04-15T10:42:22;5.90;;;1.60;;
79124;SDS011;68527;39.470;-0.376;2023-04-15T10:44:50;6.20;;;1.50;;
79124;SDS011;68527;39.470;-0.376;2023-04-15T10:47:17;3.90;;;1.20;;
79124;SDS011;68527;39.470;-0.376;2023-04-15T10:49:49;3.90;;;1.20;;
79124;SDS011;68527;39.470;-0.376;2023-04-15T10:52:22;3.00;;;1.10;;
79124;SDS011;68527;39.470;-0.376;2023-04-15T10:54:57;2.70;;;1.00;;
79124;SDS011;68527;39.470;-0.376;2023-04-15T10:57:38;3.90;;;1.20;;
79124;SDS011;68527;39.470;-0.376;2023-04-15T11:00:09;3.80;;;1.40;;
79124;SDS011;68527;39.470;-0.376;2023-04-15T11:02:42;3.70;;;1.10;;
79124;SDS011;68527;39.470;-0.376;2023-04-15T11:05:09;2.50;;;1.00;;
79124;SDS011;68527;39.470;-0.376;2023-04-15T11:12:43;4.90;;;1.50;;
79124;SDS011;68527;39.470;-0.376;2023-04-15T11:17:58;2.40;;;1.10;;
79124;SDS011;68527;39.470;-0.376;2023-04-15T11:20:41;3.00;;;1.40;;
79124;SDS011;68527;39.470;-0.376;2023-04-15T11:23:09;3.70;;;1.20;;
79124;SDS011;68527;39.470;-0.376;2023-04-15T11:25:35;3.00;;;1.30;;
79124;SDS011;68527;39.470;-0.376;2023-04-15T11:28:02;4.30;;;1.40;;
79124;SDS011;68527;39.470;-0.376;2023-04-15T11:30:29;3.50;;;1.20;;
79124;SDS011;68527;39.470;-0.376;2023-04-15T11:32:57;3.40;;;1.10;;
79124;SDS011;68527;39.470;-0.376;2023-04-15T11:35:27;3.60;;;1.00;;
79124;SDS011;68527;39.470;-0.376;2023-04-15T11:37:52;5.40;;;1.40;;
79124;SDS011;68527;39.470;-0.376;2023-04-15T11:40:26;3.20;;;1.20;;
79124;SDS011;68527;39.470;-0.376;2023-04-15T11:43:09;2.90;;;1.20;;
79124;SDS011;68527;39.470;-0.376;2023-04-15T11:45:37;2.80;;;1.30;;
79124;SDS011;68527;39.470;-0.376;2023-04-15T11:48:12;2.50;;;1.20;;
79124;SDS011;68527;39.470;-0.376;2023-04-15T11:50:37;3.70;;;1.20;;
79124;SDS011;68527;39.470;-0.376;2023-04-15T11:53:10;3.70;;;1.10;;
79124;SDS011;68527;39.470;-0.376;2023-04-15T11:55:44;3.30;;;1.30;;
79124;SDS011;68527;39.470;-0.376;2023-04-15T12:00:38;4.50;;;1.30;;
79124;SDS011;68527;39.470;-0.376;2023-04-15T12:03:17;2.00;;;1.10;;
79124;SDS011;68527;39.470;-0.376;2023-04-15T12:08:48;3.90;;;1.10;;
79124;SDS011;68527;39.470;-0.376;2023-04-15T12:16:20;3.10;;;1.10;;
79124;SDS011;68527;39.470;-0.376;2023-04-15T12:18:51;3.00;;;1.10;;
79124;SDS011;68527;39.470;-0.376;2023-04-15T12:21:21;1.90;;;1.00;;
79124;SDS011;68527;39.470;-0.376;2023-04-15T12:23:51;3.10;;;1.40;;
79124;SDS011;68527;39.470;-0.376;2023-04-15T12:26:27;2.60;;;1.30;;
79124;SDS011;68527;39.470;-0.376;2023-04-15T12:31:27;2.30;;;1.10;;
79124;SDS011;68527;39.470;-0.376;2023-04-15T12:33:56;2.30;;;1.30;;
79124;SDS011;68527;39.470;-0.376;2023-04-15T12:36:22;3.50;;;1.00;;
79124;SDS011;68527;39.470;-0.376;2023-04-15T12:38:48;3.70;;;1.30;;
79124;SDS011;68527;39.470;-0.376;2023-04-15T12:41:14;3.20;;;1.30;;
79124;SDS011;68527;39.470;-0.376;2023-04-15T12:43:40;3.10;;;1.20;;
79124;SDS011;68527;39.470;-0.376;2023-04-15T12:46:06;2.80;;;1.30;;
79124;SDS011;68527;39.470;-0.376;2023-04-15T12:48:33;1.90;;;1.30;;
79124;SDS011;68527;39.470;-0.376;2023-04-15T12:50:58;2.30;;;1.00;;
79124;SDS011;68527;39.470;-0.376;2023-04-15T12:53:24;3.40;;;1.30;;
79124;SDS011;68527;39.470;-0.376;2023-04-15T12:55:51;4.40;;;1.70;;
79124;SDS011;68527;39.470;-0.376;2023-04-15T13:00:42;3.10;;;1.30;;
79124;SDS011;68527;39.470;-0.376;2023-04-15T13:03:08;2.90;;;1.20;;
79124;SDS011;68527;39.470;-0.376;2023-04-15T13:05:34;4.10;;;1.30;;
79124;SDS011;68527;39.470;-0.376;2023-04-15T13:08:01;2.60;;;0.90;;
79124;SDS011;68527;39.470;-0.376;2023-04-15T13:10:28;2.20;;;1.10;;
79124;SDS011;68527;39.470;-0.376;2023-04-15T13:12:53;3.10;;;1.40;;
79124;SDS011;68527;39.470;-0.376;2023-04-15T13:15:20;4.40;;;1.30;;
79124;SDS011;68527;39.470;-0.376;2023-04-15T13:17:46;3.90;;;1.40;;
79124;SDS011;68527;39.470;-0.376;2023-04-15T13:20:12;3.30;;;1.20;;
79124;SDS011;68527;39.470;-0.376;2023-04-15T13:22:38;4.10;;;1.60;;
79124;SDS011;68527;39.470;-0.376;2023-04-15T13:25:04;2.50;;;1.50;;
79124;SDS011;68527;39.470;-0.376;2023-04-15T13:27:30;2.40;;;1.20;;
79124;SDS011;68527;39.470;-0.376;2023-04-15T13:29:55;4.50;;;1.70;;
79124;SDS011;68527;39.470;-0.376;2023-04-15T13:32:21;3.00;;;1.20;;
79124;SDS011;68527;39.470;-0.376;2023-04-15T13:34:47;2.50;;;1.30;;
79124;SDS011;68527;39.470;-0.376;2023-04-15T13:39:37;3.00;;;1.20;;
79124;SDS011;68527;39.470;-0.376;2023-04-15T13:42:03;3.20;;;1.30;;
79124;SDS011;68527;39.470;-0.376;2023-04-15T13:44:29;2.60;;;1.00;;
79124;SDS011;68527;39.470;-0.376;2023-04-15T13:46:55;2.50;;;1.30;;
79124;SDS011;68527;39.470;-0.376;2023-04-15T13:49:20;3.00;;;1.10;;
79124;SDS011;68527;39.470;-0.376;2023-04-15T13:51:46;2.70;;;1.10;;
79124;SDS011;68527;39.470;-0.376;2023-04-15T13:54:11;5.20;;;1.30;;
79124;SDS011;68527;39.470;-0.376;2023-04-15T13:56:37;2.60;;;1.50;;
79124;SDS011;68527;39.470;-0.376;2023-04-15T13:59:03;3.10;;;1.20;;
79124;SDS011;68527;39.470;-0.376;2023-04-15T14:01:30;3.90;;;1.30;;
79124;SDS011;68527;39.470;-0.376;2023-04-15T14:03:56;3.30;;;1.30;;
79124;SDS011;68527;39.470;-0.376;2023-04-15T14:08:47;2.60;;;1.30;;
79124;SDS011;68527;39.470;-0.376;2023-04-15T14:11:12;1.80;;;1.00;;
79124;SDS011;68527;39.470;-0.376;2023-04-15T14:13:38;3.70;;;1.40;;
79124;SDS011;68527;39.470;-0.376;2023-04-15T14:16:04;3.00;;;1.50;;
79124;SDS011;68527;39.470;-0.376;2023-04-15T14:18:30;4.30;;;1.70;;
79124;SDS011;68527;39.470;-0.376;2023-04-15T14:20:55;2.20;;;1.00;;
79124;SDS011;68527;39.470;-0.376;2023-04-15T14:23:21;3.30;;;1.40;;
79124;SDS011;68527;39.470;-0.376;2023-04-15T14:25:47;3.30;;;1.30;;
79124;SDS011;68527;39.470;-0.376;2023-04-15T14:28:13;3.60;;;1.50;;
79124;SDS011;68527;39.470;-0.376;2023-04-15T14:30:39;5.20;;;1.40;;
79124;SDS011;68527;39.470;-0.376;2023-04-15T14:33:04;2.20;;;0.90;;
79124;SDS011;68527;39.470;-0.376;2023-04-15T14:37:56;2.40;;;1.50;;
79124;SDS011;68527;39.470;-0.376;2023-04-15T14:40:22;3.20;;;1.60;;
79124;SDS011;68527;39.470;-0.376;2023-04-15T14:42:47;3.20;;;1.40;;
79124;SDS011;68527;39.470;-0.376;2023-04-15T14:45:13;3.70;;;1.40;;
79124;SDS011;68527;39.470;-0.376;2023-04-15T14:47:38;2.90;;;1.50;;
79124;SDS011;68527;39.470;-0.376;2023-04-15T14:50:04;2.60;;;1.30;;
79124;SDS011;68527;39.470;-0.376;2023-04-15T14:52:31;4.20;;;1.40;;
79124;SDS011;68527;39.470;-0.376;2023-04-15T14:55:02;1.80;;;1.00;;
79124;SDS011;68527;39.470;-0.376;2023-04-15T14:57:32;3.60;;;1.30;;
79124;SDS011;68527;39.470;-0.376;2023-04-15T14:59:58;3.70;;;1.60;;
79124;SDS011;68527;39.470;-0.376;2023-04-15T15:02:23;3.60;;;1.40;;
79124;SDS011;68527;39.470;-0.376;2023-04-15T15:04:49;2.00;;;1.30;;
79124;SDS011;68527;39.470;-0.376;2023-04-15T15:07:14;2.90;;;1.20;;
79124;SDS011;68527;39.470;-0.376;2023-04-15T15:09:40;3.10;;;1.30;;
79124;SDS011;68527;39.470;-0.376;2023-04-15T15:12:06;2.80;;;1.40;;
79124;SDS011;68527;39.470;-0.376;2023-04-15T15:14:31;4.70;;;1.30;;
79124;SDS011;68527;39.470;-0.376;2023-04-15T15:16:57;3.50;;;1.40;;
79124;SDS011;68527;39.470;-0.376;2023-04-15T15:19:23;3.80;;;1.50;;
79124;SDS011;68527;39.470;-0.376;2023-04-15T15:21:49;4.90;;;1.30;;
79124;SDS011;68527;39.470;-0.376;2023-04-15T15:24:15;3.20;;;1.30;;
79124;SDS011;68527;39.470;-0.376;2023-04-15T15:26:40;3.70;;;1.40;;
79124;SDS011;68527;39.470;-0.376;2023-04-15T15:31:33;2.40;;;1.20;;
79124;SDS011;68527;39.470;-0.376;2023-04-15T15:33:59;3.80;;;1.30;;
79124;SDS011;68527;39.470;-0.376;2023-04-15T15:38:51;3.90;;;1.20;;
79124;SDS011;68527;39.470;-0.376;2023-04-15T15:41:17;3.30;;;1.20;;
79124;SDS011;68527;39.470;-0.376;2023-04-15T15:43:42;3.90;;;1.30;;
79124;SDS011;68527;39.470;-0.376;2023-04-15T15:46:08;4.60;;;1.40;;
79124;SDS011;68527;39.470;-0.376;2023-04-15T15:48:33;4.00;;;1.20;;
79124;SDS011;68527;39.470;-0.376;2023-04-15T15:50:59;2.70;;;1.30;;
79124;SDS011;68527;39.470;-0.376;2023-04-15T15:53:25;3.20;;;1.30;;
79124;SDS011;68527;39.470;-0.376;2023-04-15T15:55:51;2.00;;;1.00;;
79124;SDS011;68527;39.470;-0.376;2023-04-15T15:58:16;3.90;;;1.30;;
79124;SDS011;68527;39.470;-0.376;2023-04-15T16:00:42;3.00;;;1.40;;
79124;SDS011;68527;39.470;-0.376;2023-04-15T16:03:07;2.60;;;1.20;;
79124;SDS011;68527;39.470;-0.376;2023-04-15T16:07:59;3.00;;;1.20;;
79124;SDS011;68527;39.470;-0.376;2023-04-15T16:10:24;2.70;;;1.10;;
79124;SDS011;68527;39.470;-0.376;2023-04-15T16:12:50;2.90;;;1.40;;
79124;SDS011;68527;39.470;-0.376;2023-04-15T16:15:16;2.70;;;1.10;;
79124;SDS011;68527;39.470;-0.376;2023-04-15T16:20:07;5.90;;;1.50;;
79124;SDS011;68527;39.470;-0.376;2023-04-15T16:22:33;4.80;;;1.30;;
79124;SDS011;68527;39.470;-0.376;2023-04-15T16:24:59;3.40;;;1.10;;
79124;SDS011;68527;39.470;-0.376;2023-04-15T16:27:25;4.50;;;1.40;;
79124;SDS011;68527;39.470;-0.376;2023-04-15T16:29:51;2.70;;;1.10;;
79124;SDS011;68527;39.470;-0.376;2023-04-15T16:32:17;3.80;;;1.60;;